createdAt,value
2019-04-16T00:02:18.801Z,21.30
2019-04-16T00:05:00.958Z,21.30
2019-04-16T00:07:48.404Z,21.30
2019-04-16T00:10:46.616Z,21.20
2019-04-16T00:13:20.146Z,21.20
2019-04-16T00:15:50.134Z,21.20
2019-04-16T00:18:20.095Z,21.20
2019-04-16T00:21:09.929Z,21.20
2019-04-16T00:23:57.958Z,21.20
2019-04-16T00:26:27.947Z,21.20
2019-04-16T00:29:01.630Z,21.20
2019-04-16T00:31:29.827Z,21.20
2019-04-16T00:33:59.807Z,21.20
2019-04-16T00:36:29.736Z,21.20
2019-04-16T00:38:59.718Z,21.20
2019-04-16T00:41:29.714Z,21.20
2019-04-16T00:43:59.651Z,21.20
2019-04-16T00:46:29.655Z,21.20
2019-04-16T00:48:59.687Z,21.20
2019-04-16T00:51:29.735Z,21.30
2019-04-16T00:53:59.650Z,21.20
2019-04-16T00:56:29.634Z,21.20
2019-04-16T00:58:59.646Z,21.30
2019-04-16T01:01:29.867Z,21.20
2019-04-16T01:03:59.788Z,21.20
2019-04-16T01:06:29.687Z,21.20
2019-04-16T01:08:59.648Z,21.20
2019-04-16T01:11:29.623Z,21.20
2019-04-16T01:13:59.604Z,21.20
2019-04-16T01:16:30.288Z,21.20
2019-04-16T01:19:01.180Z,21.20
2019-04-16T01:21:31.231Z,21.10
2019-04-16T01:24:01.332Z,21.10
2019-04-16T01:26:31.220Z,21.10
2019-04-16T01:29:08.847Z,21.10
2019-04-16T01:31:56.532Z,21.10
2019-04-16T01:34:47.142Z,21.10
2019-04-16T01:37:37.186Z,21.10
2019-04-16T01:40:08.166Z,21.00
2019-04-16T01:42:38.075Z,21.00
2019-04-16T01:45:08.264Z,21.00
2019-04-16T01:47:38.235Z,21.00
2019-04-16T01:50:12.944Z,21.00
2019-04-16T01:52:40.086Z,21.00
2019-04-16T01:55:10.097Z,21.00
2019-04-16T01:57:40.049Z,21.00
2019-04-16T02:00:10.927Z,21.00
2019-04-16T02:02:43.494Z,21.00
2019-04-16T02:05:12.562Z,21.00
2019-04-16T02:07:42.463Z,21.00
2019-04-16T02:10:12.651Z,21.00
2019-04-16T02:12:43.891Z,21.00
2019-04-16T02:15:14.337Z,21.00
2019-04-16T02:17:44.677Z,21.00
2019-04-16T02:20:14.789Z,21.00
2019-04-16T02:22:45.082Z,21.00
2019-04-16T02:25:18.921Z,21.00
2019-04-16T02:27:47.215Z,21.00
2019-04-16T02:30:18.909Z,21.00
2019-04-16T02:32:48.798Z,21.00
2019-04-16T02:35:18.765Z,20.90
2019-04-16T02:37:48.816Z,20.90
2019-04-16T02:40:19.143Z,20.90
2019-04-16T02:42:49.143Z,20.90
2019-04-16T02:45:23.035Z,20.90
2019-04-16T02:47:50.673Z,20.90
2019-04-16T02:50:30.700Z,20.90
2019-04-16T02:53:12.200Z,20.90
2019-04-16T02:56:00.533Z,20.80
2019-04-16T02:58:38.228Z,20.80
2019-04-16T03:01:24.303Z,20.80
2019-04-16T03:03:59.147Z,20.70
2019-04-16T03:06:31.619Z,20.70
2019-04-16T03:09:00.839Z,20.70
2019-04-16T03:11:30.854Z,20.80
2019-04-16T03:14:00.822Z,20.80
2019-04-16T03:16:48.018Z,20.80
2019-04-16T03:19:22.243Z,20.80
2019-04-16T03:21:52.156Z,20.80
2019-04-16T03:24:22.087Z,20.70
2019-04-16T03:26:52.143Z,20.80
2019-04-16T03:29:22.203Z,20.80
2019-04-16T03:31:57.438Z,20.80
2019-04-16T03:34:23.892Z,20.70
2019-04-16T03:36:53.896Z,20.80
2019-04-16T03:39:23.824Z,20.80
2019-04-16T03:41:56.232Z,20.80
2019-04-16T03:44:25.670Z,20.80
2019-04-16T03:46:55.647Z,20.80
2019-04-16T03:49:27.672Z,20.80
2019-04-16T03:51:57.236Z,20.80
2019-04-16T03:54:27.136Z,20.70
2019-04-16T03:57:01.808Z,20.80
2019-04-16T03:59:28.816Z,20.80
2019-04-16T04:01:58.832Z,20.80
2019-04-16T04:04:29.289Z,20.70
2019-04-16T04:06:59.954Z,20.80
2019-04-16T04:09:30.212Z,20.80
2019-04-16T04:12:00.218Z,20.70
2019-04-16T04:14:30.145Z,20.70
2019-04-16T04:17:05.221Z,20.70
2019-04-16T04:19:32.042Z,20.70
2019-04-16T04:22:01.976Z,20.60
2019-04-16T04:24:32.233Z,20.60
2019-04-16T04:27:02.520Z,20.60
2019-04-16T04:29:32.433Z,20.60
2019-04-16T04:32:03.382Z,20.60
2019-04-16T04:34:34.175Z,20.60
2019-04-16T04:37:04.088Z,20.60
2019-04-16T04:39:33.996Z,20.50
2019-04-16T04:42:03.927Z,20.50
2019-04-16T04:44:36.969Z,20.50
2019-04-16T04:47:05.562Z,20.50
2019-04-16T04:49:35.446Z,20.50
2019-04-16T04:52:05.463Z,20.50
2019-04-16T04:54:35.393Z,20.50
2019-04-16T04:57:05.430Z,20.50
2019-04-16T04:59:36.788Z,20.50
2019-04-16T05:02:07.191Z,20.60
2019-04-16T05:04:59.118Z,20.60
2019-04-16T05:07:29.393Z,20.60
2019-04-16T05:09:59.459Z,20.50
2019-04-16T05:12:29.426Z,20.50
2019-04-16T05:14:59.382Z,20.50
2019-04-16T05:17:30.569Z,20.60
2019-04-16T05:20:00.482Z,20.60
2019-04-16T05:22:32.807Z,20.50
2019-04-16T05:25:02.490Z,20.50
2019-04-16T05:27:32.579Z,20.50
2019-04-16T05:30:02.619Z,20.50
2019-04-16T05:32:34.008Z,20.50
2019-04-16T05:35:09.072Z,20.50
2019-04-16T05:37:35.995Z,20.50
2019-04-16T05:40:06.198Z,20.50
2019-04-16T05:42:36.072Z,20.50
2019-04-16T05:45:06.654Z,20.50
2019-04-16T05:47:36.587Z,20.50
2019-04-16T05:50:06.977Z,20.50
2019-04-16T05:52:37.006Z,20.50
2019-04-16T05:55:20.771Z,20.50
2019-04-16T05:57:50.811Z,20.50
2019-04-16T06:00:33.437Z,20.50
2019-04-16T06:03:03.610Z,20.50
2019-04-16T06:05:33.519Z,20.40
2019-04-16T06:08:10.795Z,20.50
2019-04-16T06:10:41.028Z,20.50
2019-04-16T06:13:32.828Z,20.50
2019-04-16T06:16:25.192Z,20.50
2019-04-16T06:19:11.550Z,20.50
2019-04-16T06:22:19.427Z,20.40
2019-04-16T06:25:09.700Z,20.40
2019-04-16T06:28:06.171Z,20.40
2019-04-16T06:30:57.817Z,20.30
2019-04-16T06:33:55.332Z,20.30
2019-04-16T06:36:46.906Z,20.30
2019-04-16T06:39:23.338Z,20.30
2019-04-16T06:42:12.094Z,20.30
2019-04-16T06:44:53.359Z,20.30
2019-04-16T06:47:41.733Z,20.30
2019-04-16T06:50:43.710Z,20.30
2019-04-16T06:53:30.753Z,20.30
2019-04-16T06:56:25.698Z,20.30
2019-04-16T06:59:00.392Z,20.30
2019-04-16T07:01:49.115Z,20.30
2019-04-16T07:04:36.569Z,20.30
2019-04-16T07:07:45.483Z,20.30
2019-04-16T07:10:18.130Z,20.40
2019-04-16T07:12:48.266Z,20.30
2019-04-16T07:15:22.292Z,20.30
2019-04-16T07:17:50.099Z,20.30
2019-04-16T07:20:20.006Z,20.40
2019-04-16T07:22:52.730Z,20.40
2019-04-16T07:25:21.967Z,20.40
2019-04-16T07:28:17.794Z,20.40
2019-04-16T07:30:54.140Z,20.40
2019-04-16T07:33:45.898Z,20.40
2019-04-16T07:36:40.792Z,20.40
2019-04-16T07:39:30.311Z,20.40
2019-04-16T07:42:12.843Z,20.40
2019-04-16T07:44:55.676Z,20.40
2019-04-16T07:47:43.508Z,20.40
2019-04-16T07:50:21.094Z,20.40
2019-04-16T07:53:13.330Z,20.40
2019-04-16T07:55:49.452Z,20.40
2019-04-16T07:58:19.614Z,20.40
2019-04-16T08:00:49.510Z,20.40
2019-04-16T08:03:19.611Z,20.40
2019-04-16T08:05:49.603Z,20.40
2019-04-16T08:08:24.338Z,20.40
2019-04-16T08:10:51.139Z,20.40
2019-04-16T08:13:22.235Z,20.40
2019-04-16T08:15:52.393Z,20.50
2019-04-16T08:18:22.380Z,20.50
2019-04-16T08:21:01.006Z,20.50
2019-04-16T08:23:52.976Z,20.50
2019-04-16T08:26:23.051Z,20.50
2019-04-16T08:28:52.991Z,20.40
2019-04-16T08:31:25.884Z,20.40
2019-04-16T08:33:55.831Z,20.40
2019-04-16T08:36:25.795Z,20.40
2019-04-16T08:38:55.794Z,20.50
2019-04-16T08:41:25.796Z,20.40
2019-04-16T08:43:55.831Z,20.50
2019-04-16T08:46:28.045Z,20.50
2019-04-16T08:48:57.399Z,20.50
2019-04-16T08:51:30.756Z,20.50
2019-04-16T08:53:59.414Z,20.50
2019-04-16T08:56:29.430Z,20.50
2019-04-16T08:59:01.309Z,20.40
2019-04-16T09:01:32.967Z,20.40
2019-04-16T09:04:03.264Z,20.50
2019-04-16T09:06:33.392Z,20.50
2019-04-16T09:09:13.970Z,20.50
2019-04-16T09:11:48.458Z,20.50
2019-04-16T09:14:20.797Z,20.40
2019-04-16T09:16:57.273Z,20.40
2019-04-16T09:19:27.254Z,20.40
2019-04-16T09:21:57.115Z,20.40
2019-04-16T09:24:40.472Z,20.40
2019-04-16T09:27:30.066Z,20.50
2019-04-16T09:30:27.565Z,20.40
2019-04-16T09:33:22.093Z,20.40
2019-04-16T09:36:00.286Z,20.40
2019-04-16T09:38:55.329Z,20.30
2019-04-16T09:41:40.512Z,20.40
2019-04-16T09:44:10.413Z,20.40
2019-04-16T09:46:50.929Z,20.40
2019-04-16T09:49:12.027Z,20.40
2019-04-16T09:51:41.904Z,20.40
2019-04-16T09:54:13.563Z,20.40
2019-04-16T09:56:43.735Z,20.40
2019-04-16T09:59:22.245Z,20.40
2019-04-16T10:02:00.299Z,20.50
2019-04-16T10:04:30.363Z,20.40
2019-04-16T10:07:00.327Z,20.40
2019-04-16T10:09:30.307Z,20.40
2019-04-16T10:12:00.280Z,20.50
2019-04-16T10:14:30.285Z,20.50
2019-04-16T10:17:00.269Z,20.50
2019-04-16T10:19:30.211Z,20.50
2019-04-16T10:22:00.087Z,20.50
2019-04-16T10:24:46.949Z,20.50
2019-04-16T10:27:35.803Z,20.50
2019-04-16T10:30:15.782Z,20.40
2019-04-16T10:32:45.638Z,20.40
2019-04-16T10:35:15.847Z,20.40
2019-04-16T10:37:46.031Z,20.40
2019-04-16T10:40:38.203Z,20.40
2019-04-16T10:43:45.063Z,20.50
2019-04-16T10:46:43.083Z,20.40
2019-04-16T10:49:27.868Z,20.40
2019-04-16T10:52:25.983Z,20.30
2019-04-16T10:55:09.293Z,20.30
2019-04-16T10:57:56.204Z,20.30
2019-04-16T11:00:44.991Z,20.40
2019-04-16T11:03:28.780Z,20.40
2019-04-16T11:06:02.082Z,20.40
2019-04-16T11:08:32.086Z,20.40
2019-04-16T11:11:02.107Z,20.40
2019-04-16T11:13:35.526Z,20.40
2019-04-16T11:16:12.170Z,20.50
2019-04-16T11:18:42.280Z,20.50
2019-04-16T11:21:12.666Z,20.50
2019-04-16T11:23:42.464Z,20.50
2019-04-16T11:26:12.341Z,20.50
2019-04-16T11:28:42.131Z,20.50
2019-04-16T11:31:14.994Z,20.50
2019-04-16T11:33:45.129Z,20.50
2019-04-16T11:36:19.875Z,20.50
2019-04-16T11:38:46.478Z,20.50
2019-04-16T11:41:16.433Z,20.50
2019-04-16T11:43:46.201Z,20.50
2019-04-16T11:46:16.046Z,20.50
2019-04-16T11:48:45.938Z,20.50
2019-04-16T11:51:15.858Z,20.50
2019-04-16T11:53:45.663Z,20.60
2019-04-16T11:56:15.692Z,20.60
2019-04-16T11:58:48.213Z,20.60
2019-04-16T12:01:43.167Z,20.60
2019-04-16T12:04:26.558Z,20.60
2019-04-16T12:07:14.867Z,20.50
2019-04-16T12:09:58.244Z,20.60
2019-04-16T12:12:42.918Z,20.60
2019-04-16T12:15:20.107Z,20.50
2019-04-16T12:18:08.736Z,20.50
2019-04-16T12:21:00.364Z,20.50
2019-04-16T12:23:47.665Z,20.50
2019-04-16T12:26:35.022Z,20.50
2019-04-16T12:29:23.803Z,20.50
2019-04-16T12:32:05.317Z,20.50
2019-04-16T12:34:53.392Z,20.50
2019-04-16T12:37:40.831Z,20.50
2019-04-16T12:40:20.052Z,20.50
2019-04-16T12:42:58.470Z,20.50
2019-04-16T12:45:34.495Z,20.50
2019-04-16T12:48:22.267Z,20.50
2019-04-16T12:51:11.319Z,20.50
2019-04-16T12:54:03.276Z,20.50
2019-04-16T12:56:52.133Z,20.50
2019-04-16T12:59:29.735Z,20.50
2019-04-16T13:02:13.365Z,20.50
2019-04-16T13:04:56.875Z,20.50
2019-04-16T13:07:34.734Z,20.50
2019-04-16T13:10:09.392Z,20.50
2019-04-16T13:12:57.021Z,20.50
2019-04-16T13:15:36.634Z,20.60
2019-04-16T13:18:11.381Z,20.50
2019-04-16T13:21:05.328Z,20.50
2019-04-16T13:23:53.235Z,20.60
2019-04-16T13:26:54.007Z,20.50
2019-04-16T13:29:28.974Z,20.50
2019-04-16T13:31:56.436Z,20.50
2019-04-16T13:34:26.364Z,20.60
2019-04-16T13:36:59.366Z,20.60
2019-04-16T13:39:39.997Z,20.60
2019-04-16T13:42:07.794Z,20.70
2019-04-16T13:44:41.670Z,20.60
2019-04-16T13:47:11.777Z,20.60
2019-04-16T13:50:06.463Z,20.70
2019-04-16T13:52:36.968Z,20.70
2019-04-16T13:55:24.627Z,20.60
2019-04-16T13:58:19.572Z,20.70
2019-04-16T14:00:54.332Z,20.60
2019-04-16T14:03:24.930Z,20.60
2019-04-16T14:05:54.987Z,20.60
2019-04-16T14:08:24.745Z,20.70
2019-04-16T14:10:54.681Z,20.60
2019-04-16T14:13:24.518Z,20.70
2019-04-16T14:15:54.310Z,20.70
2019-04-16T14:18:24.168Z,20.70
2019-04-16T14:20:53.951Z,20.70
2019-04-16T14:23:23.738Z,20.70
2019-04-16T14:25:53.636Z,20.80
2019-04-16T14:28:23.463Z,20.70
2019-04-16T14:30:53.401Z,20.80
2019-04-16T14:33:29.186Z,20.80
2019-04-16T14:35:59.080Z,20.80
2019-04-16T14:38:37.805Z,20.80
2019-04-16T14:41:07.643Z,20.80
2019-04-16T14:43:39.983Z,20.80
2019-04-16T14:46:09.914Z,20.80
2019-04-16T14:48:45.219Z,20.80
2019-04-16T14:51:11.359Z,20.90
2019-04-16T14:53:54.073Z,20.90
2019-04-16T14:56:35.845Z,20.90
2019-04-16T14:59:33.298Z,20.90
2019-04-16T15:02:16.454Z,20.80
2019-04-16T15:05:03.854Z,20.80
2019-04-16T15:08:01.607Z,20.80
2019-04-16T15:10:52.663Z,20.80
2019-04-16T15:13:29.644Z,20.80
2019-04-16T15:16:09.366Z,20.80
2019-04-16T15:18:44.629Z,20.80
2019-04-16T15:21:32.037Z,20.80
2019-04-16T15:24:29.823Z,20.80
2019-04-16T15:27:07.639Z,20.80
2019-04-16T15:29:46.635Z,20.80
2019-04-16T15:32:44.353Z,20.80
2019-04-16T15:35:18.548Z,20.80
2019-04-16T15:37:58.063Z,20.80
2019-04-16T15:40:31.662Z,20.80
2019-04-16T15:43:19.102Z,20.90
2019-04-16T15:46:26.175Z,20.90
2019-04-16T15:49:11.224Z,20.90
2019-04-16T15:51:50.669Z,20.80
2019-04-16T15:54:44.655Z,20.80
2019-04-16T15:57:36.074Z,20.80
2019-04-16T16:00:29.736Z,20.80
2019-04-16T16:03:17.279Z,20.80
2019-04-16T16:05:57.618Z,20.80
2019-04-16T16:08:40.791Z,20.80
2019-04-16T16:11:17.598Z,20.80
2019-04-16T16:13:47.608Z,20.80
2019-04-16T16:16:18.810Z,20.90
2019-04-16T16:18:48.876Z,20.90
2019-04-16T16:21:18.707Z,20.90
2019-04-16T16:23:48.532Z,20.90
2019-04-16T16:26:18.414Z,20.90
2019-04-16T16:28:48.240Z,21.00
2019-04-16T16:31:17.989Z,20.90
2019-04-16T16:33:47.827Z,21.00
2019-04-16T16:36:17.739Z,21.00
2019-04-16T16:38:48.645Z,21.00
2019-04-16T16:41:19.059Z,21.00
2019-04-16T16:43:48.893Z,21.00
2019-04-16T16:46:31.600Z,21.00
2019-04-16T16:49:01.708Z,21.00
2019-04-16T16:51:31.511Z,21.00
2019-04-16T16:54:10.913Z,21.00
2019-04-16T16:57:03.552Z,21.00
2019-04-16T16:59:51.634Z,21.00
2019-04-16T17:02:47.595Z,21.00
2019-04-16T17:05:25.410Z,21.00
2019-04-16T17:07:55.282Z,20.90
2019-04-16T17:10:25.087Z,20.90
2019-04-16T17:12:54.920Z,20.90
2019-04-16T17:15:24.925Z,21.00
2019-04-16T17:17:55.001Z,21.00
2019-04-16T17:20:24.874Z,21.00
2019-04-16T17:22:54.763Z,21.00
2019-04-16T17:25:36.326Z,21.00
2019-04-16T17:27:56.358Z,21.00
2019-04-16T17:30:26.327Z,21.10
2019-04-16T17:32:56.079Z,21.00
2019-04-16T17:35:25.990Z,21.10
2019-04-16T17:37:55.950Z,21.10
2019-04-16T17:40:38.673Z,21.10
2019-04-16T17:43:14.067Z,21.10
2019-04-16T17:45:55.275Z,21.10
2019-04-16T17:48:43.991Z,21.10
2019-04-16T17:51:23.589Z,21.00
2019-04-16T17:54:21.159Z,21.00
2019-04-16T17:57:08.472Z,21.00
2019-04-16T17:59:44.661Z,21.00
2019-04-16T18:02:45.336Z,21.00
2019-04-16T18:05:24.272Z,21.00
2019-04-16T18:08:11.890Z,21.00
2019-04-16T18:11:06.412Z,21.00
2019-04-16T18:13:47.326Z,21.00
2019-04-16T18:16:37.128Z,20.90
2019-04-16T18:19:25.754Z,21.00
2019-04-16T18:22:23.363Z,21.00
2019-04-16T18:25:11.050Z,21.00
2019-04-16T18:27:52.826Z,21.00
2019-04-16T18:30:50.585Z,21.00
2019-04-16T18:33:36.618Z,21.00
2019-04-16T18:36:31.091Z,21.00
2019-04-16T18:39:22.982Z,21.00
2019-04-16T18:41:56.926Z,21.00
2019-04-16T18:44:57.950Z,21.00
2019-04-16T18:47:40.311Z,21.00
2019-04-16T18:50:16.547Z,21.00
2019-04-16T18:52:46.319Z,21.00
2019-04-16T18:55:16.303Z,21.00
2019-04-16T18:57:46.214Z,21.10
2019-04-16T19:00:31.981Z,21.10
2019-04-16T19:03:02.313Z,21.10
2019-04-16T19:05:32.134Z,21.10
2019-04-16T19:08:02.063Z,21.10
2019-04-16T19:10:31.943Z,21.10
2019-04-16T19:13:09.694Z,21.20
2019-04-16T19:15:34.281Z,21.20
2019-04-16T19:18:18.115Z,21.20
2019-04-16T19:20:35.670Z,21.10
2019-04-16T19:23:05.423Z,21.20
2019-04-16T19:25:35.794Z,21.20
2019-04-16T19:28:06.916Z,21.20
2019-04-16T19:30:36.883Z,21.20
2019-04-16T19:33:06.817Z,21.20
2019-04-16T19:35:36.752Z,21.20
2019-04-16T19:38:07.525Z,21.20
2019-04-16T19:40:39.414Z,21.20
2019-04-16T19:43:09.358Z,21.20
2019-04-16T19:45:40.715Z,21.20
2019-04-16T19:48:10.673Z,21.20
2019-04-16T19:50:40.617Z,21.20
2019-04-16T19:53:13.688Z,21.20
2019-04-16T19:55:45.645Z,21.20
2019-04-16T19:58:13.531Z,21.20
2019-04-16T20:00:43.494Z,21.20
2019-04-16T20:03:14.464Z,21.20
2019-04-16T20:05:44.288Z,21.20
2019-04-16T20:08:14.173Z,21.20
2019-04-16T20:10:44.162Z,21.20
2019-04-16T20:13:14.022Z,21.20
2019-04-16T20:15:44.262Z,21.20
2019-04-16T20:18:15.096Z,21.20
2019-04-16T20:20:47.109Z,21.20
2019-04-16T20:23:16.488Z,21.20
2019-04-16T20:25:46.443Z,21.20
2019-04-16T20:28:16.432Z,21.20
2019-04-16T20:30:46.392Z,21.20
2019-04-16T20:33:16.350Z,21.20
2019-04-16T20:35:50.366Z,21.30
2019-04-16T20:38:17.793Z,21.30
2019-04-16T20:40:47.687Z,21.20
2019-04-16T20:43:17.590Z,21.30
2019-04-16T20:45:47.585Z,21.30
2019-04-16T20:48:17.498Z,21.30
2019-04-16T20:50:52.696Z,21.20
2019-04-16T20:53:18.823Z,21.20
2019-04-16T20:55:49.061Z,21.20
2019-04-16T20:58:18.888Z,21.30
2019-04-16T21:00:50.430Z,21.20
2019-04-16T21:03:22.642Z,21.30
2019-04-16T21:05:59.067Z,21.30
2019-04-16T21:08:25.062Z,21.20
2019-04-16T21:10:58.503Z,21.20
2019-04-16T21:13:26.253Z,21.30
2019-04-16T21:15:57.312Z,21.20
2019-04-16T21:18:27.675Z,21.20
2019-04-16T21:20:57.641Z,21.20
2019-04-16T21:23:27.570Z,21.30
2019-04-16T21:25:57.537Z,21.30
2019-04-16T21:28:41.363Z,21.30
2019-04-16T21:31:17.340Z,21.30
2019-04-16T21:33:52.256Z,21.20
2019-04-16T21:36:41.835Z,21.20
2019-04-16T21:39:30.546Z,21.20
2019-04-16T21:42:02.410Z,21.20
2019-04-16T21:44:32.193Z,21.20
2019-04-16T21:47:01.984Z,21.20
2019-04-16T21:49:38.994Z,21.20
2019-04-16T21:52:09.644Z,21.20
2019-04-16T21:54:39.959Z,21.20
2019-04-16T21:57:13.253Z,21.20
2019-04-16T21:59:41.255Z,21.20
2019-04-16T22:02:30.176Z,21.20
2019-04-16T22:05:00.286Z,21.20
2019-04-16T22:07:30.262Z,21.20
2019-04-16T22:10:00.183Z,21.20
2019-04-16T22:12:29.979Z,21.20
2019-04-16T22:14:59.762Z,21.20
2019-04-16T22:17:29.834Z,21.20
2019-04-16T22:20:03.857Z,21.20
2019-04-16T22:22:33.732Z,21.20
2019-04-16T22:25:03.631Z,21.30
2019-04-16T22:27:33.490Z,21.20
2019-04-16T22:30:03.245Z,21.20
2019-04-16T22:32:33.099Z,21.30
2019-04-16T22:35:03.072Z,21.30
2019-04-16T22:37:32.897Z,21.30
2019-04-16T22:40:15.570Z,21.30
2019-04-16T22:43:08.574Z,21.20
2019-04-16T22:45:43.033Z,21.20
2019-04-16T22:48:12.783Z,21.20
2019-04-16T22:50:42.586Z,21.20
2019-04-16T22:53:16.949Z,21.20
2019-04-16T22:55:43.887Z,21.20
2019-04-16T22:58:24.256Z,21.20
2019-04-16T23:00:57.682Z,21.20
2019-04-16T23:03:27.553Z,21.20
2019-04-16T23:05:57.361Z,21.20
2019-04-16T23:08:27.156Z,21.20
2019-04-16T23:10:57.070Z,21.20
2019-04-16T23:13:32.278Z,21.20
2019-04-16T23:15:58.443Z,21.20
2019-04-16T23:18:28.318Z,21.10
2019-04-16T23:20:58.151Z,21.10
2019-04-16T23:23:28.069Z,21.10
2019-04-16T23:25:59.537Z,21.10
2019-04-16T23:28:29.399Z,21.10
2019-04-16T23:30:59.243Z,21.10
2019-04-16T23:33:32.549Z,21.10
2019-04-16T23:36:00.603Z,21.10
2019-04-16T23:38:31.737Z,21.00
2019-04-16T23:41:01.967Z,21.00
2019-04-16T23:43:59.549Z,21.00
2019-04-16T23:46:47.079Z,21.00
2019-04-16T23:49:35.716Z,21.00
2019-04-16T23:52:31.942Z,20.90
2019-04-16T23:55:04.762Z,20.90
2019-04-16T23:57:56.671Z,20.90
